Amistad, New Mexico
Current Conditions -  °F | °C
As of 9:53 AM on Monday 22 Dec 2014 (Local Time) from KDHT Reporting Station
Few Clouds Few Clouds  
Wind Chill: 42°   Ceiling: Unl
Heat Index: 49°   Visibility: 10mi
Dew Point: 24°   Wind: 21mph
Humidity: 38%   Direction: 350°N
Pressure: 29.76"   Gusts: 31mph
Location:  35.92°N, 103.16°W
Report Text: KDHT 221653Z AUTO 35018G27KT 10SM FEW038 09/M04 A2976 RMK AO2 PK WND 34031/1635 RAB27E37 SLP060 P0000 T00941044
Loading
Personal Weather Stations






























Interactive Weather Map New forecast layout! Learn more

10-Day Weather Forecast

Advertisements
Track Severe Weather on mobile